sensor_id;sensor_type;location;lat;lon;timestamp;temperature;humidity
6429;DHT22;3247;48.946;10.220;2023-07-02T00:01:09;16.60;99.90
6429;DHT22;3247;48.946;10.220;2023-07-02T00:03:35;16.60;99.90
6429;DHT22;3247;48.946;10.220;2023-07-02T00:06:02;16.60;99.90
6429;DHT22;3247;48.946;10.220;2023-07-02T00:08:27;17.00;99.90
6429;DHT22;3247;48.946;10.220;2023-07-02T00:10:53;16.70;99.90
6429;DHT22;3247;48.946;10.220;2023-07-02T00:13:18;16.70;99.90
6429;DHT22;3247;48.946;10.220;2023-07-02T00:15:44;16.60;99.90
6429;DHT22;3247;48.946;10.220;2023-07-02T00:18:09;16.60;99.90
6429;DHT22;3247;48.946;10.220;2023-07-02T00:20:39;16.50;99.90
6429;DHT22;3247;48.946;10.220;2023-07-02T00:23:06;16.60;99.90
6429;DHT22;3247;48.946;10.220;2023-07-02T00:25:34;16.50;99.90
6429;DHT22;3247;48.946;10.220;2023-07-02T00:27:59;16.60;99.90
6429;DHT22;3247;48.946;10.220;2023-07-02T00:30:25;16.40;99.90
6429;DHT22;3247;48.946;10.220;2023-07-02T00:32:50;16.40;99.90
6429;DHT22;3247;48.946;10.220;2023-07-02T00:35:16;16.40;99.90
6429;DHT22;3247;48.946;10.220;2023-07-02T00:37:41;16.40;99.90
6429;DHT22;3247;48.946;10.220;2023-07-02T00:40:07;16.30;99.90
6429;DHT22;3247;48.946;10.220;2023-07-02T00:42:32;16.30;99.90
6429;DHT22;3247;48.946;10.220;2023-07-02T00:44:58;16.40;99.90
6429;DHT22;3247;48.946;10.220;2023-07-02T00:47:28;16.30;99.90
6429;DHT22;3247;48.946;10.220;2023-07-02T00:49:59;16.40;99.90
6429;DHT22;3247;48.946;10.220;2023-07-02T00:52:24;16.30;99.90
6429;DHT22;3247;48.946;10.220;2023-07-02T00:54:51;16.30;99.90
6429;DHT22;3247;48.946;10.220;2023-07-02T00:57:16;16.30;99.90
6429;DHT22;3247;48.946;10.220;2023-07-02T00:59:42;16.30;99.90
6429;DHT22;3247;48.946;10.220;2023-07-02T01:02:07;16.20;99.90
6429;DHT22;3247;48.946;10.220;2023-07-02T01:04:33;16.10;99.90
6429;DHT22;3247;48.946;10.220;2023-07-02T01:06:58;16.10;99.90
6429;DHT22;3247;48.946;10.220;2023-07-02T01:09:23;16.10;99.90
6429;DHT22;3247;48.946;10.220;2023-07-02T01:11:53;16.00;99.90
6429;DHT22;3247;48.946;10.220;2023-07-02T01:16:47;15.90;99.90
6429;DHT22;3247;48.946;10.220;2023-07-02T01:19:15;15.90;99.90
6429;DHT22;3247;48.946;10.220;2023-07-02T01:21:45;15.80;99.90
6429;DHT22;3247;48.946;10.220;2023-07-02T01:24:12;15.80;99.90
6429;DHT22;3247;48.946;10.220;2023-07-02T01:26:39;15.70;99.90
6429;DHT22;3247;48.946;10.220;2023-07-02T01:29:17;15.70;99.90
6429;DHT22;3247;48.946;10.220;2023-07-02T01:31:43;15.60;99.90
6429;DHT22;3247;48.946;10.220;2023-07-02T01:34:09;15.50;99.90
6429;DHT22;3247;48.946;10.220;2023-07-02T01:36:34;15.50;99.90
6429;DHT22;3247;48.946;10.220;2023-07-02T01:39:00;15.50;99.90
6429;DHT22;3247;48.946;10.220;2023-07-02T01:41:25;15.40;99.90
6429;DHT22;3247;48.946;10.220;2023-07-02T01:43:51;15.40;99.90
6429;DHT22;3247;48.946;10.220;2023-07-02T01:46:16;15.30;99.90
6429;DHT22;3247;48.946;10.220;2023-07-02T01:48:42;15.30;99.90
6429;DHT22;3247;48.946;10.220;2023-07-02T01:51:07;15.20;99.90
6429;DHT22;3247;48.946;10.220;2023-07-02T01:53:33;15.10;99.90
6429;DHT22;3247;48.946;10.220;2023-07-02T01:55:58;15.10;99.90
6429;DHT22;3247;48.946;10.220;2023-07-02T01:58:24;15.10;99.90
6429;DHT22;3247;48.946;10.220;2023-07-02T02:00:50;15.00;99.90
6429;DHT22;3247;48.946;10.220;2023-07-02T02:03:15;14.90;99.90
6429;DHT22;3247;48.946;10.220;2023-07-02T02:05:41;14.80;99.90
6429;DHT22;3247;48.946;10.220;2023-07-02T02:08:06;14.80;99.90
6429;DHT22;3247;48.946;10.220;2023-07-02T02:10:31;14.80;99.90
6429;DHT22;3247;48.946;10.220;2023-07-02T02:12:57;14.70;99.90
6429;DHT22;3247;48.946;10.220;2023-07-02T02:15:23;14.70;99.90
6429;DHT22;3247;48.946;10.220;2023-07-02T02:17:48;14.50;99.90
6429;DHT22;3247;48.946;10.220;2023-07-02T02:20:14;14.60;99.90
6429;DHT22;3247;48.946;10.220;2023-07-02T02:22:39;14.50;99.90
6429;DHT22;3247;48.946;10.220;2023-07-02T02:25:05;14.50;99.90
6429;DHT22;3247;48.946;10.220;2023-07-02T02:27:30;14.50;99.90
6429;DHT22;3247;48.946;10.220;2023-07-02T02:29:56;14.50;99.90
6429;DHT22;3247;48.946;10.220;2023-07-02T02:32:21;14.40;99.90
6429;DHT22;3247;48.946;10.220;2023-07-02T02:34:47;14.40;99.90
6429;DHT22;3247;48.946;10.220;2023-07-02T02:37:13;14.30;99.90
6429;DHT22;3247;48.946;10.220;2023-07-02T02:39:38;14.30;99.90
6429;DHT22;3247;48.946;10.220;2023-07-02T02:42:04;14.30;99.90
6429;DHT22;3247;48.946;10.220;2023-07-02T02:44:29;14.30;99.90
6429;DHT22;3247;48.946;10.220;2023-07-02T02:46:55;14.30;99.90
6429;DHT22;3247;48.946;10.220;2023-07-02T02:49:20;14.30;99.90
6429;DHT22;3247;48.946;10.220;2023-07-02T02:51:46;14.30;99.90
6429;DHT22;3247;48.946;10.220;2023-07-02T02:54:11;14.30;99.90
6429;DHT22;3247;48.946;10.220;2023-07-02T02:56:37;14.30;99.90
6429;DHT22;3247;48.946;10.220;2023-07-02T02:59:02;14.30;99.90
6429;DHT22;3247;48.946;10.220;2023-07-02T03:01:28;14.20;99.90
6429;DHT22;3247;48.946;10.220;2023-07-02T03:03:57;14.20;99.90
6429;DHT22;3247;48.946;10.220;2023-07-02T03:06:23;14.20;99.90
6429;DHT22;3247;48.946;10.220;2023-07-02T03:08:48;14.20;99.90
6429;DHT22;3247;48.946;10.220;2023-07-02T03:11:14;14.20;99.90
6429;DHT22;3247;48.946;10.220;2023-07-02T03:13:39;14.20;99.90
6429;DHT22;3247;48.946;10.220;2023-07-02T03:16:05;14.20;99.90
6429;DHT22;3247;48.946;10.220;2023-07-02T03:18:30;14.20;99.90
6429;DHT22;3247;48.946;10.220;2023-07-02T03:20:56;14.20;99.90
6429;DHT22;3247;48.946;10.220;2023-07-02T03:23:21;14.20;99.90
6429;DHT22;3247;48.946;10.220;2023-07-02T03:25:47;14.20;99.90
6429;DHT22;3247;48.946;10.220;2023-07-02T03:28:12;14.20;99.90
6429;DHT22;3247;48.946;10.220;2023-07-02T03:30:38;14.20;99.90
6429;DHT22;3247;48.946;10.220;2023-07-02T03:33:03;14.30;99.90
6429;DHT22;3247;48.946;10.220;2023-07-02T03:35:29;14.30;99.90
6429;DHT22;3247;48.946;10.220;2023-07-02T03:37:54;14.30;99.90
6429;DHT22;3247;48.946;10.220;2023-07-02T03:40:20;14.30;99.90
6429;DHT22;3247;48.946;10.220;2023-07-02T03:42:45;14.30;99.90
6429;DHT22;3247;48.946;10.220;2023-07-02T03:45:11;14.40;99.90
6429;DHT22;3247;48.946;10.220;2023-07-02T03:47:36;14.50;99.90
6429;DHT22;3247;48.946;10.220;2023-07-02T03:50:02;14.50;99.90
6429;DHT22;3247;48.946;10.220;2023-07-02T03:52:27;14.60;99.90
6429;DHT22;3247;48.946;10.220;2023-07-02T03:54:53;14.60;99.90
6429;DHT22;3247;48.946;10.220;2023-07-02T03:57:18;15.00;99.90
6429;DHT22;3247;48.946;10.220;2023-07-02T03:59:44;14.80;99.90
6429;DHT22;3247;48.946;10.220;2023-07-02T04:02:09;14.70;99.90
6429;DHT22;3247;48.946;10.220;2023-07-02T04:04:35;14.80;99.90
6429;DHT22;3247;48.946;10.220;2023-07-02T04:07:01;14.80;99.90
6429;DHT22;3247;48.946;10.220;2023-07-02T04:09:26;14.80;99.90
6429;DHT22;3247;48.946;10.220;2023-07-02T04:11:51;14.90;99.90
6429;DHT22;3247;48.946;10.220;2023-07-02T04:14:17;14.80;99.90
6429;DHT22;3247;48.946;10.220;2023-07-02T04:16:43;14.80;99.90
6429;DHT22;3247;48.946;10.220;2023-07-02T04:19:10;14.90;99.90
6429;DHT22;3247;48.946;10.220;2023-07-02T04:21:35;14.90;99.90
6429;DHT22;3247;48.946;10.220;2023-07-02T04:24:01;14.90;99.90
6429;DHT22;3247;48.946;10.220;2023-07-02T04:26:26;15.00;99.90
6429;DHT22;3247;48.946;10.220;2023-07-02T04:28:53;15.00;99.90
6429;DHT22;3247;48.946;10.220;2023-07-02T04:31:18;15.00;99.90
6429;DHT22;3247;48.946;10.220;2023-07-02T04:33:44;15.10;99.90
6429;DHT22;3247;48.946;10.220;2023-07-02T04:36:10;15.10;99.90
6429;DHT22;3247;48.946;10.220;2023-07-02T04:38:35;15.00;99.90
6429;DHT22;3247;48.946;10.220;2023-07-02T04:41:01;15.10;99.90
6429;DHT22;3247;48.946;10.220;2023-07-02T04:43:31;15.10;99.90
6429;DHT22;3247;48.946;10.220;2023-07-02T04:45:56;15.10;99.90
6429;DHT22;3247;48.946;10.220;2023-07-02T04:48:22;15.10;99.90
6429;DHT22;3247;48.946;10.220;2023-07-02T04:50:47;15.10;99.90
6429;DHT22;3247;48.946;10.220;2023-07-02T04:53:13;14.90;99.90
6429;DHT22;3247;48.946;10.220;2023-07-02T04:55:38;14.90;99.90
6429;DHT22;3247;48.946;10.220;2023-07-02T04:58:04;14.80;99.90
6429;DHT22;3247;48.946;10.220;2023-07-02T05:00:29;14.80;99.90
6429;DHT22;3247;48.946;10.220;2023-07-02T05:02:55;14.70;99.90
6429;DHT22;3247;48.946;10.220;2023-07-02T05:05:20;14.70;99.90
6429;DHT22;3247;48.946;10.220;2023-07-02T05:07:45;14.70;99.90
6429;DHT22;3247;48.946;10.220;2023-07-02T05:10:11;14.60;99.90
6429;DHT22;3247;48.946;10.220;2023-07-02T05:12:36;14.60;99.90
6429;DHT22;3247;48.946;10.220;2023-07-02T05:15:02;14.60;99.90
6429;DHT22;3247;48.946;10.220;2023-07-02T05:17:27;14.60;99.90
6429;DHT22;3247;48.946;10.220;2023-07-02T05:19:53;14.50;99.90
6429;DHT22;3247;48.946;10.220;2023-07-02T05:22:19;14.50;99.90
6429;DHT22;3247;48.946;10.220;2023-07-02T05:24:44;14.50;99.90
6429;DHT22;3247;48.946;10.220;2023-07-02T05:27:11;14.50;99.90
6429;DHT22;3247;48.946;10.220;2023-07-02T05:29:37;14.30;99.90
6429;DHT22;3247;48.946;10.220;2023-07-02T05:32:02;14.50;99.90
6429;DHT22;3247;48.946;10.220;2023-07-02T05:34:28;14.40;99.90
6429;DHT22;3247;48.946;10.220;2023-07-02T05:36:53;14.40;99.90
6429;DHT22;3247;48.946;10.220;2023-07-02T05:39:18;14.40;99.90
6429;DHT22;3247;48.946;10.220;2023-07-02T05:41:44;14.50;99.90
6429;DHT22;3247;48.946;10.220;2023-07-02T05:44:09;14.50;99.90
6429;DHT22;3247;48.946;10.220;2023-07-02T05:46:35;14.50;99.90
6429;DHT22;3247;48.946;10.220;2023-07-02T05:49:00;14.50;99.90
6429;DHT22;3247;48.946;10.220;2023-07-02T05:51:26;14.60;99.90
6429;DHT22;3247;48.946;10.220;2023-07-02T05:53:51;14.70;99.90
6429;DHT22;3247;48.946;10.220;2023-07-02T05:56:17;14.80;99.90
6429;DHT22;3247;48.946;10.220;2023-07-02T05:58:43;15.70;99.90
6429;DHT22;3247;48.946;10.220;2023-07-02T06:01:08;15.10;99.90
6429;DHT22;3247;48.946;10.220;2023-07-02T06:03:34;15.20;99.90
6429;DHT22;3247;48.946;10.220;2023-07-02T06:05:59;15.30;99.90
6429;DHT22;3247;48.946;10.220;2023-07-02T06:08:25;15.50;99.90
6429;DHT22;3247;48.946;10.220;2023-07-02T06:10:50;15.60;99.90
6429;DHT22;3247;48.946;10.220;2023-07-02T06:13:16;15.70;99.90
6429;DHT22;3247;48.946;10.220;2023-07-02T06:15:42;15.90;99.90
6429;DHT22;3247;48.946;10.220;2023-07-02T06:18:07;16.00;99.90
6429;DHT22;3247;48.946;10.220;2023-07-02T06:20:38;16.10;99.90
6429;DHT22;3247;48.946;10.220;2023-07-02T06:23:03;16.20;99.90
6429;DHT22;3247;48.946;10.220;2023-07-02T06:25:28;16.30;99.90
6429;DHT22;3247;48.946;10.220;2023-07-02T06:27:54;16.40;99.90
6429;DHT22;3247;48.946;10.220;2023-07-02T06:30:26;16.60;99.90
6429;DHT22;3247;48.946;10.220;2023-07-02T06:32:52;16.80;99.90
6429;DHT22;3247;48.946;10.220;2023-07-02T06:35:17;17.30;99.90
6429;DHT22;3247;48.946;10.220;2023-07-02T06:37:43;17.80;99.90
6429;DHT22;3247;48.946;10.220;2023-07-02T06:40:08;18.40;99.90
6429;DHT22;3247;48.946;10.220;2023-07-02T06:42:34;19.80;99.90
6429;DHT22;3247;48.946;10.220;2023-07-02T06:45:01;20.80;99.90
6429;DHT22;3247;48.946;10.220;2023-07-02T06:47:27;21.70;99.90
6429;DHT22;3247;48.946;10.220;2023-07-02T06:49:52;23.20;99.90
6429;DHT22;3247;48.946;10.220;2023-07-02T06:52:18;24.30;99.90
6429;DHT22;3247;48.946;10.220;2023-07-02T06:54:43;23.90;99.90
6429;DHT22;3247;48.946;10.220;2023-07-02T06:57:09;24.30;99.90
6429;DHT22;3247;48.946;10.220;2023-07-02T06:59:34;24.50;99.90
6429;DHT22;3247;48.946;10.220;2023-07-02T07:02:00;24.90;99.90
6429;DHT22;3247;48.946;10.220;2023-07-02T07:04:25;25.20;99.90
6429;DHT22;3247;48.946;10.220;2023-07-02T07:06:51;25.90;99.90
6429;DHT22;3247;48.946;10.220;2023-07-02T07:09:16;25.60;99.90
6429;DHT22;3247;48.946;10.220;2023-07-02T07:11:43;25.60;99.90
6429;DHT22;3247;48.946;10.220;2023-07-02T07:14:08;26.20;99.90
6429;DHT22;3247;48.946;10.220;2023-07-02T07:16:34;26.10;99.90
6429;DHT22;3247;48.946;10.220;2023-07-02T07:19:00;26.70;99.90
6429;DHT22;3247;48.946;10.220;2023-07-02T07:21:30;28.10;99.90
6429;DHT22;3247;48.946;10.220;2023-07-02T07:23:56;28.50;99.90
6429;DHT22;3247;48.946;10.220;2023-07-02T07:26:21;28.20;99.90
6429;DHT22;3247;48.946;10.220;2023-07-02T07:28:47;28.00;99.90
6429;DHT22;3247;48.946;10.220;2023-07-02T07:31:12;28.50;99.90
6429;DHT22;3247;48.946;10.220;2023-07-02T07:33:38;28.40;99.90
6429;DHT22;3247;48.946;10.220;2023-07-02T07:36:04;28.30;99.90
6429;DHT22;3247;48.946;10.220;2023-07-02T07:38:29;28.00;99.90
6429;DHT22;3247;48.946;10.220;2023-07-02T07:40:54;28.30;99.90
6429;DHT22;3247;48.946;10.220;2023-07-02T07:43:20;28.10;99.90
6429;DHT22;3247;48.946;10.220;2023-07-02T07:45:45;28.20;99.80
6429;DHT22;3247;48.946;10.220;2023-07-02T07:48:11;28.80;98.80
6429;DHT22;3247;48.946;10.220;2023-07-02T07:50:36;28.70;98.40
6429;DHT22;3247;48.946;10.220;2023-07-02T07:53:02;28.40;97.30
6429;DHT22;3247;48.946;10.220;2023-07-02T07:55:27;27.80;97.60
6429;DHT22;3247;48.946;10.220;2023-07-02T07:57:53;27.90;98.50
6429;DHT22;3247;48.946;10.220;2023-07-02T08:00:18;27.60;96.90
6429;DHT22;3247;48.946;10.220;2023-07-02T08:02:45;27.60;97.20
6429;DHT22;3247;48.946;10.220;2023-07-02T08:05:10;26.60;97.90
6429;DHT22;3247;48.946;10.220;2023-07-02T08:07:36;25.90;99.40
6429;DHT22;3247;48.946;10.220;2023-07-02T08:10:01;25.60;99.80
6429;DHT22;3247;48.946;10.220;2023-07-02T08:12:27;25.10;99.90
6429;DHT22;3247;48.946;10.220;2023-07-02T08:14:55;24.20;99.90
6429;DHT22;3247;48.946;10.220;2023-07-02T08:17:20;23.80;99.90
6429;DHT22;3247;48.946;10.220;2023-07-02T08:19:45;23.60;99.90
6429;DHT22;3247;48.946;10.220;2023-07-02T08:22:11;23.40;99.90
6429;DHT22;3247;48.946;10.220;2023-07-02T08:24:37;23.10;99.90
6429;DHT22;3247;48.946;10.220;2023-07-02T08:27:02;23.10;99.90
6429;DHT22;3247;48.946;10.220;2023-07-02T08:29:31;23.10;99.90
6429;DHT22;3247;48.946;10.220;2023-07-02T08:31:57;22.80;99.90
6429;DHT22;3247;48.946;10.220;2023-07-02T08:34:22;22.70;99.90
6429;DHT22;3247;48.946;10.220;2023-07-02T08:36:48;22.70;99.90
6429;DHT22;3247;48.946;10.220;2023-07-02T08:39:14;23.00;99.90
6429;DHT22;3247;48.946;10.220;2023-07-02T08:41:42;23.20;99.90
6429;DHT22;3247;48.946;10.220;2023-07-02T08:44:09;23.70;99.90
6429;DHT22;3247;48.946;10.220;2023-07-02T08:46:36;24.70;99.90
6429;DHT22;3247;48.946;10.220;2023-07-02T08:49:01;24.70;99.90
6429;DHT22;3247;48.946;10.220;2023-07-02T08:51:27;25.40;99.90
6429;DHT22;3247;48.946;10.220;2023-07-02T08:53:52;25.50;99.90
6429;DHT22;3247;48.946;10.220;2023-07-02T08:56:18;25.70;99.90
6429;DHT22;3247;48.946;10.220;2023-07-02T08:58:43;26.40;99.90
6429;DHT22;3247;48.946;10.220;2023-07-02T09:01:11;27.30;99.20
6429;DHT22;3247;48.946;10.220;2023-07-02T09:03:37;27.50;97.80
6429;DHT22;3247;48.946;10.220;2023-07-02T09:06:04;27.90;97.00
6429;DHT22;3247;48.946;10.220;2023-07-02T09:08:29;28.10;97.30
6429;DHT22;3247;48.946;10.220;2023-07-02T09:11:08;27.80;96.80
6429;DHT22;3247;48.946;10.220;2023-07-02T09:13:49;27.60;96.40
6429;DHT22;3247;48.946;10.220;2023-07-02T09:16:25;26.90;96.80
6429;DHT22;3247;48.946;10.220;2023-07-02T09:18:58;26.50;96.80
6429;DHT22;3247;48.946;10.220;2023-07-02T09:21:27;26.10;97.70
6429;DHT22;3247;48.946;10.220;2023-07-02T09:23:53;26.40;97.20
6429;DHT22;3247;48.946;10.220;2023-07-02T09:26:20;25.80;97.20
6429;DHT22;3247;48.946;10.220;2023-07-02T09:28:45;26.10;97.00
6429;DHT22;3247;48.946;10.220;2023-07-02T09:31:11;26.10;97.00
6429;DHT22;3247;48.946;10.220;2023-07-02T09:33:36;27.00;96.80
6429;DHT22;3247;48.946;10.220;2023-07-02T09:36:02;26.90;96.40
6429;DHT22;3247;48.946;10.220;2023-07-02T09:38:27;27.20;95.60
6429;DHT22;3247;48.946;10.220;2023-07-02T09:40:53;27.40;95.20
6429;DHT22;3247;48.946;10.220;2023-07-02T09:43:19;27.50;95.00
6429;DHT22;3247;48.946;10.220;2023-07-02T09:45:46;27.50;95.50
6429;DHT22;3247;48.946;10.220;2023-07-02T09:48:15;27.50;95.20
6429;DHT22;3247;48.946;10.220;2023-07-02T09:50:50;27.60;94.30
6429;DHT22;3247;48.946;10.220;2023-07-02T09:53:15;27.40;93.70
6429;DHT22;3247;48.946;10.220;2023-07-02T09:55:44;27.50;92.90
6429;DHT22;3247;48.946;10.220;2023-07-02T09:58:09;27.20;93.40
6429;DHT22;3247;48.946;10.220;2023-07-02T10:00:37;26.80;93.50
6429;DHT22;3247;48.946;10.220;2023-07-02T10:03:03;26.30;93.10
6429;DHT22;3247;48.946;10.220;2023-07-02T10:05:29;26.90;93.40
6429;DHT22;3247;48.946;10.220;2023-07-02T10:07:58;26.30;93.60
6429;DHT22;3247;48.946;10.220;2023-07-02T10:10:30;26.10;94.10
6429;DHT22;3247;48.946;10.220;2023-07-02T10:12:56;25.80;93.80
6429;DHT22;3247;48.946;10.220;2023-07-02T10:15:28;24.20;93.60
6429;DHT22;3247;48.946;10.220;2023-07-02T10:17:55;25.10;94.70
6429;DHT22;3247;48.946;10.220;2023-07-02T10:20:31;25.80;94.50
6429;DHT22;3247;48.946;10.220;2023-07-02T10:22:57;25.10;94.40
6429;DHT22;3247;48.946;10.220;2023-07-02T10:25:27;25.00;93.70
6429;DHT22;3247;48.946;10.220;2023-07-02T10:27:52;24.70;94.70
6429;DHT22;3247;48.946;10.220;2023-07-02T10:30:18;24.70;94.90
6429;DHT22;3247;48.946;10.220;2023-07-02T10:32:43;24.60;94.30
6429;DHT22;3247;48.946;10.220;2023-07-02T10:35:18;24.40;94.10
6429;DHT22;3247;48.946;10.220;2023-07-02T10:37:44;24.20;94.40
6429;DHT22;3247;48.946;10.220;2023-07-02T10:40:09;24.30;95.10
6429;DHT22;3247;48.946;10.220;2023-07-02T10:42:48;24.60;95.00
6429;DHT22;3247;48.946;10.220;2023-07-02T10:45:14;25.00;94.20
6429;DHT22;3247;48.946;10.220;2023-07-02T10:47:40;25.10;94.00
6429;DHT22;3247;48.946;10.220;2023-07-02T10:50:24;25.20;93.90
6429;DHT22;3247;48.946;10.220;2023-07-02T10:52:50;25.50;94.00
6429;DHT22;3247;48.946;10.220;2023-07-02T10:55:17;25.70;93.80
6429;DHT22;3247;48.946;10.220;2023-07-02T10:57:43;26.40;93.20
6429;DHT22;3247;48.946;10.220;2023-07-02T11:00:08;26.20;92.70
6429;DHT22;3247;48.946;10.220;2023-07-02T11:02:37;26.40;92.30
6429;DHT22;3247;48.946;10.220;2023-07-02T11:05:06;26.30;91.40
6429;DHT22;3247;48.946;10.220;2023-07-02T11:07:32;26.60;91.60
6429;DHT22;3247;48.946;10.220;2023-07-02T11:09:58;26.80;91.00
6429;DHT22;3247;48.946;10.220;2023-07-02T11:12:32;26.90;91.00
6429;DHT22;3247;48.946;10.220;2023-07-02T11:15:07;26.80;90.40
6429;DHT22;3247;48.946;10.220;2023-07-02T11:17:33;26.80;90.60
6429;DHT22;3247;48.946;10.220;2023-07-02T11:19:58;26.70;90.20
6429;DHT22;3247;48.946;10.220;2023-07-02T11:22:31;26.70;90.60
6429;DHT22;3247;48.946;10.220;2023-07-02T11:24:56;26.20;91.10
6429;DHT22;3247;48.946;10.220;2023-07-02T11:27:22;25.90;91.10
6429;DHT22;3247;48.946;10.220;2023-07-02T11:29:47;25.20;91.40
6429;DHT22;3247;48.946;10.220;2023-07-02T11:32:13;25.20;91.80
6429;DHT22;3247;48.946;10.220;2023-07-02T11:34:39;25.50;91.20
6429;DHT22;3247;48.946;10.220;2023-07-02T11:37:05;26.20;91.60
6429;DHT22;3247;48.946;10.220;2023-07-02T11:39:30;26.10;91.20
6429;DHT22;3247;48.946;10.220;2023-07-02T11:41:56;26.10;91.00
6429;DHT22;3247;48.946;10.220;2023-07-02T11:44:22;26.40;90.70
6429;DHT22;3247;48.946;10.220;2023-07-02T11:46:47;26.10;90.70
6429;DHT22;3247;48.946;10.220;2023-07-02T11:49:13;26.30;91.40
6429;DHT22;3247;48.946;10.220;2023-07-02T11:51:42;25.50;90.60
6429;DHT22;3247;48.946;10.220;2023-07-02T11:54:13;25.40;91.50
6429;DHT22;3247;48.946;10.220;2023-07-02T11:56:39;25.90;92.10
6429;DHT22;3247;48.946;10.220;2023-07-02T11:59:07;25.70;92.00
6429;DHT22;3247;48.946;10.220;2023-07-02T12:01:32;25.90;91.20
6429;DHT22;3247;48.946;10.220;2023-07-02T12:03:58;25.90;91.70
6429;DHT22;3247;48.946;10.220;2023-07-02T12:06:23;25.90;91.30
6429;DHT22;3247;48.946;10.220;2023-07-02T12:08:48;26.50;91.20
6429;DHT22;3247;48.946;10.220;2023-07-02T12:11:14;26.70;90.90
6429;DHT22;3247;48.946;10.220;2023-07-02T12:13:41;27.10;91.10
6429;DHT22;3247;48.946;10.220;2023-07-02T12:16:06;27.70;90.50
6429;DHT22;3247;48.946;10.220;2023-07-02T12:18:32;27.30;90.70
6429;DHT22;3247;48.946;10.220;2023-07-02T12:20:57;27.50;90.50
6429;DHT22;3247;48.946;10.220;2023-07-02T12:23:23;27.40;90.80
6429;DHT22;3247;48.946;10.220;2023-07-02T12:25:48;27.40;90.30
6429;DHT22;3247;48.946;10.220;2023-07-02T12:28:14;27.40;90.00
6429;DHT22;3247;48.946;10.220;2023-07-02T12:30:39;27.20;90.30
6429;DHT22;3247;48.946;10.220;2023-07-02T12:33:05;27.30;90.80
6429;DHT22;3247;48.946;10.220;2023-07-02T12:35:30;27.30;90.10
6429;DHT22;3247;48.946;10.220;2023-07-02T12:37:56;27.50;90.00
6429;DHT22;3247;48.946;10.220;2023-07-02T12:40:21;27.30;89.40
6429;DHT22;3247;48.946;10.220;2023-07-02T12:42:47;27.00;90.30
6429;DHT22;3247;48.946;10.220;2023-07-02T12:45:13;26.70;90.50
6429;DHT22;3247;48.946;10.220;2023-07-02T12:47:42;26.20;90.70
6429;DHT22;3247;48.946;10.220;2023-07-02T12:50:09;26.20;90.80
6429;DHT22;3247;48.946;10.220;2023-07-02T12:52:35;26.40;90.90
6429;DHT22;3247;48.946;10.220;2023-07-02T12:55:00;26.40;90.80
6429;DHT22;3247;48.946;10.220;2023-07-02T12:57:26;26.70;91.00
6429;DHT22;3247;48.946;10.220;2023-07-02T12:59:55;26.30;90.80
6429;DHT22;3247;48.946;10.220;2023-07-02T13:02:23;26.40;91.20
6429;DHT22;3247;48.946;10.220;2023-07-02T13:04:49;26.50;91.50
6429;DHT22;3247;48.946;10.220;2023-07-02T13:07:15;26.60;90.70
6429;DHT22;3247;48.946;10.220;2023-07-02T13:09:40;26.80;90.60
6429;DHT22;3247;48.946;10.220;2023-07-02T13:12:06;26.80;90.60
6429;DHT22;3247;48.946;10.220;2023-07-02T13:14:33;26.70;89.80
6429;DHT22;3247;48.946;10.220;2023-07-02T13:16:58;26.70;90.60
6429;DHT22;3247;48.946;10.220;2023-07-02T13:19:30;26.50;90.50
6429;DHT22;3247;48.946;10.220;2023-07-02T13:22:02;26.60;90.40
6429;DHT22;3247;48.946;10.220;2023-07-02T13:24:31;26.40;90.20
6429;DHT22;3247;48.946;10.220;2023-07-02T13:26:57;26.50;89.90
6429;DHT22;3247;48.946;10.220;2023-07-02T13:29:22;26.60;90.30
6429;DHT22;3247;48.946;10.220;2023-07-02T13:31:48;26.70;91.00
6429;DHT22;3247;48.946;10.220;2023-07-02T13:34:13;26.80;90.70
6429;DHT22;3247;48.946;10.220;2023-07-02T13:36:39;26.60;90.60
6429;DHT22;3247;48.946;10.220;2023-07-02T13:39:04;26.60;90.50
6429;DHT22;3247;48.946;10.220;2023-07-02T13:41:30;26.40;90.20
6429;DHT22;3247;48.946;10.220;2023-07-02T13:43:56;26.10;90.30
6429;DHT22;3247;48.946;10.220;2023-07-02T13:46:26;25.90;90.60
6429;DHT22;3247;48.946;10.220;2023-07-02T13:48:59;25.90;90.90
6429;DHT22;3247;48.946;10.220;2023-07-02T13:51:38;25.70;91.30
6429;DHT22;3247;48.946;10.220;2023-07-02T13:54:07;25.50;91.10
6429;DHT22;3247;48.946;10.220;2023-07-02T13:56:32;25.30;90.70
6429;DHT22;3247;48.946;10.220;2023-07-02T14:01:24;25.20;91.00
6429;DHT22;3247;48.946;10.220;2023-07-02T14:03:49;25.30;91.10
6429;DHT22;3247;48.946;10.220;2023-07-02T14:06:15;25.40;91.00
6429;DHT22;3247;48.946;10.220;2023-07-02T14:08:41;25.70;91.20
6429;DHT22;3247;48.946;10.220;2023-07-02T14:11:06;25.70;90.50
6429;DHT22;3247;48.946;10.220;2023-07-02T14:13:31;25.60;90.20
6429;DHT22;3247;48.946;10.220;2023-07-02T14:15:58;25.60;90.50
6429;DHT22;3247;48.946;10.220;2023-07-02T14:18:23;25.50;90.90
6429;DHT22;3247;48.946;10.220;2023-07-02T14:20:49;25.60;91.20
6429;DHT22;3247;48.946;10.220;2023-07-02T14:23:14;25.50;90.80
6429;DHT22;3247;48.946;10.220;2023-07-02T14:25:40;25.50;91.00
6429;DHT22;3247;48.946;10.220;2023-07-02T14:28:05;25.50;90.70
6429;DHT22;3247;48.946;10.220;2023-07-02T14:30:30;25.40;90.60
6429;DHT22;3247;48.946;10.220;2023-07-02T14:32:56;25.30;90.60
6429;DHT22;3247;48.946;10.220;2023-07-02T14:35:21;25.10;90.60
6429;DHT22;3247;48.946;10.220;2023-07-02T14:37:50;25.20;90.40
6429;DHT22;3247;48.946;10.220;2023-07-02T14:40:16;25.20;90.30
6429;DHT22;3247;48.946;10.220;2023-07-02T14:42:41;25.20;90.10
6429;DHT22;3247;48.946;10.220;2023-07-02T14:45:07;25.20;90.60
6429;DHT22;3247;48.946;10.220;2023-07-02T14:47:32;25.20;90.00
6429;DHT22;3247;48.946;10.220;2023-07-02T14:49:58;25.10;90.10
6429;DHT22;3247;48.946;10.220;2023-07-02T14:52:23;24.80;90.20
6429;DHT22;3247;48.946;10.220;2023-07-02T14:54:48;24.70;90.30
6429;DHT22;3247;48.946;10.220;2023-07-02T14:57:14;24.90;90.30
6429;DHT22;3247;48.946;10.220;2023-07-02T14:59:42;25.10;90.40
6429;DHT22;3247;48.946;10.220;2023-07-02T15:02:08;25.10;90.00
6429;DHT22;3247;48.946;10.220;2023-07-02T15:04:33;25.10;90.10
6429;DHT22;3247;48.946;10.220;2023-07-02T15:06:59;25.00;90.10
6429;DHT22;3247;48.946;10.220;2023-07-02T15:09:24;25.20;90.10
6429;DHT22;3247;48.946;10.220;2023-07-02T15:11:50;25.10;89.10
6429;DHT22;3247;48.946;10.220;2023-07-02T15:14:15;25.00;89.00
6429;DHT22;3247;48.946;10.220;2023-07-02T15:16:40;25.00;89.30
6429;DHT22;3247;48.946;10.220;2023-07-02T15:19:06;25.00;89.50
6429;DHT22;3247;48.946;10.220;2023-07-02T15:21:31;25.00;89.80
6429;DHT22;3247;48.946;10.220;2023-07-02T15:23:57;24.90;88.70
6429;DHT22;3247;48.946;10.220;2023-07-02T15:26:22;25.00;89.40
6429;DHT22;3247;48.946;10.220;2023-07-02T15:28:48;25.10;88.80
6429;DHT22;3247;48.946;10.220;2023-07-02T15:31:14;25.00;88.70
6429;DHT22;3247;48.946;10.220;2023-07-02T15:33:40;25.10;88.70
6429;DHT22;3247;48.946;10.220;2023-07-02T15:36:06;25.20;88.90
6429;DHT22;3247;48.946;10.220;2023-07-02T15:38:34;25.20;89.20
6429;DHT22;3247;48.946;10.220;2023-07-02T15:41:10;25.10;89.10
6429;DHT22;3247;48.946;10.220;2023-07-02T15:43:36;25.10;88.80